Time;durP1;ratioP1;P1;durP2;ratioP2;P2;SDS_P1;SDS_P2;PMS_P1;PMS_P2;Temp;Humidity;BMP_temperature;BMP_pressure;BME280_temperature;BME280_humidity;BME280_pressure;Samples;Min_cycle;Max_cycle;Signal;HPM_P1;HPM_P2
2021/03/07 00:01:43;;;;;;;22.50;11.07;;;;;;;-1.83;100.00;102906.66;5241920;28;20021;-82
2021/03/07 00:04:14;;;;;;;24.95;10.27;;;;;;;-1.95;100.00;102906.94;5206677;28;20117;-82
2021/03/07 00:06:44;;;;;;;26.55;11.07;;;;;;;-1.94;100.00;102913.94;5204335;28;20112;-82
2021/03/07 00:09:15;;;;;;;22.48;10.68;;;;;;;-2.01;100.00;102908.84;5206560;28;20028;-82
2021/03/07 00:11:45;;;;;;;22.65;11.43;;;;;;;-2.03;100.00;102908.88;5217247;28;20025;-82
2021/03/07 00:14:16;;;;;;;24.27;10.77;;;;;;;-2.07;100.00;102912.47;5217011;28;20025;-82
2021/03/07 00:16:47;;;;;;;25.45;11.50;;;;;;;-2.15;100.00;102914.44;5206022;28;20104;-81
2021/03/07 00:19:17;;;;;;;25.63;11.57;;;;;;;-2.23;100.00;102914.59;5215840;28;20083;-82
2021/03/07 00:21:47;;;;;;;26.05;12.00;;;;;;;-2.29;100.00;102909.47;5226152;28;20100;-81
2021/03/07 00:24:18;;;;;;;24.27;11.48;;;;;;;-2.35;100.00;102904.34;5225929;28;20116;-82
2021/03/07 00:26:48;;;;;;;23.42;11.43;;;;;;;-2.40;100.00;102914.97;5225285;28;20025;-81
2021/03/07 00:29:19;;;;;;;23.55;10.75;;;;;;;-2.44;100.00;102913.28;5240877;28;20488;-81
2021/03/07 00:31:50;;;;;;;25.35;11.02;;;;;;;-2.46;100.00;102914.19;5217483;28;20444;-82
2021/03/07 00:34:20;;;;;;;30.98;12.02;;;;;;;-2.50;100.00;102912.56;5204284;28;20051;-82
2021/03/07 00:36:51;;;;;;;25.55;12.55;;;;;;;-2.55;100.00;102910.03;5213062;28;20017;-82
2021/03/07 00:39:21;;;;;;;27.58;12.85;;;;;;;-2.59;100.00;102910.13;5226581;28;20029;-82
2021/03/07 00:41:51;;;;;;;28.00;12.57;;;;;;;-2.62;100.00;102913.66;5215574;28;20059;-81
2021/03/07 00:44:22;;;;;;;27.67;12.18;;;;;;;-2.68;100.00;102909.41;5206321;28;20091;-82
2021/03/07 00:46:54;;;;;;;28.20;11.48;;;;;;;-2.71;100.00;102909.47;5224424;28;20035;-81
2021/03/07 00:49:28;;;;;;;26.58;12.48;;;;;;;-2.74;100.00;102904.28;5207454;28;20026;-82
2021/03/07 00:51:59;;;;;;;26.57;12.83;;;;;;;-2.76;100.00;102898.19;5206173;28;20025;-81
2021/03/07 00:54:30;;;;;;;20.00;10.45;;;;;;;-2.78;100.00;102899.09;5217807;28;20021;-82
2021/03/07 00:57:00;;;;;;;25.15;11.60;;;;;;;-2.81;100.00;102902.69;5205523;28;20531;-82
2021/03/07 00:59:31;;;;;;;23.13;10.73;;;;;;;-2.82;100.00;102900.91;5204862;28;20025;-81
2021/03/07 01:02:02;;;;;;;26.38;12.13;;;;;;;-2.85;100.00;102903.63;5205292;28;20029;-82
2021/03/07 01:04:32;;;;;;;30.52;11.40;;;;;;;-2.87;100.00;102903.63;5205033;28;20420;-81
2021/03/07 01:07:03;;;;;;;25.08;11.25;;;;;;;-2.87;100.00;102894.88;5204246;28;20108;-82
2021/03/07 01:09:33;;;;;;;23.67;11.65;;;;;;;-2.86;100.00;102904.53;5205456;28;20021;-82
2021/03/07 01:12:04;;;;;;;29.02;12.75;;;;;;;-2.88;100.00;102891.41;5218398;28;20101;-81
2021/03/07 01:14:35;;;;;;;27.60;11.98;;;;;;;-2.84;100.00;102899.22;5215828;28;20033;-81
2021/03/07 01:17:05;;;;;;;31.42;13.15;;;;;;;-2.85;100.00;102889.63;5209776;28;20500;-82
2021/03/07 01:19:35;;;;;;;28.15;12.90;;;;;;;-2.88;100.00;102888.78;5204756;28;20052;-82
2021/03/07 01:22:08;;;;;;;27.27;12.43;;;;;;;-2.90;100.00;102889.72;5229279;28;20404;-81
2021/03/07 01:24:38;;;;;;;33.03;13.52;;;;;;;-2.92;100.00;102884.47;5228466;28;20024;-81
2021/03/07 01:27:09;;;;;;;27.52;12.60;;;;;;;-2.92;100.00;102888.84;5214671;28;20075;-82
2021/03/07 01:29:39;;;;;;;28.60;12.57;;;;;;;-2.96;100.00;102882.81;5236001;28;20029;-81
2021/03/07 01:32:10;;;;;;;28.00;13.77;;;;;;;-2.98;100.00;102884.59;5217176;28;20396;-81
2021/03/07 01:34:40;;;;;;;24.38;10.85;;;;;;;-3.00;100.00;102885.53;5227744;28;20480;-81
2021/03/07 01:37:11;;;;;;;27.35;12.48;;;;;;;-3.01;100.00;102883.78;5216705;28;20104;-81
2021/03/07 01:39:41;;;;;;;22.92;11.88;;;;;;;-3.06;100.00;102877.75;5219947;28;20053;-82
2021/03/07 01:42:12;;;;;;;33.75;14.52;;;;;;;-3.07;100.00;102879.50;5220708;28;20020;-82
2021/03/07 01:44:42;;;;;;;25.42;12.35;;;;;;;-3.10;100.00;102876.97;5208224;28;20028;-81
2021/03/07 01:47:23;;;;;;;30.15;13.95;;;;;;;-3.14;100.00;102868.28;5206595;28;20500;-81
2021/03/07 01:49:54;;;;;;;30.92;14.00;;;;;;;-3.16;100.00;102858.72;5210790;28;20041;-82
2021/03/07 01:52:25;;;;;;;27.83;11.73;;;;;;;-3.16;100.00;102848.22;5224423;28;20030;-82
2021/03/07 01:54:55;;;;;;;26.88;14.18;;;;;;;-3.07;100.00;102848.00;5220927;28;20112;-81
2021/03/07 01:57:28;;;;;;;30.52;14.98;;;;;;;-3.00;100.00;102849.63;5231719;28;20492;-82
2021/03/07 02:00:01;;;;;;;29.40;12.60;;;;;;;-2.94;100.00;102841.63;5218413;28;20041;-82
2021/03/07 02:02:31;;;;;;;31.27;13.02;;;;;;;-2.98;100.00;102837.31;5210546;28;20092;-82
2021/03/07 02:05:19;;;;;;;31.40;15.02;;;;;;;-3.07;100.00;102837.50;5223914;28;20619;-82
2021/03/07 02:07:50;;;;;;;29.88;14.35;;;;;;;-3.12;100.00;102841.97;5199951;28;20021;-82
2021/03/07 02:10:32;;;;;;;31.65;13.68;;;;;;;-3.16;100.00;102829.84;5209755;28;20419;-81
2021/03/07 02:13:13;;;;;;;26.88;12.75;;;;;;;-3.20;100.00;102829.00;5224118;28;20102;-82
2021/03/07 02:15:48;;;;;;;27.25;13.20;;;;;;;-3.30;100.00;102830.09;5223634;28;20108;-81
2021/03/07 02:18:36;;;;;;;33.35;14.32;;;;;;;-3.29;100.00;102820.44;5228862;28;20020;-82
2021/03/07 02:21:13;;;;;;;29.88;13.30;;;;;;;-3.25;100.00;102809.88;5230107;28;20029;-81
2021/03/07 02:24:04;;;;;;;33.38;13.52;;;;;;;-3.18;100.00;102814.09;5224704;28;20500;-82
2021/03/07 02:26:38;;;;;;;33.20;14.77;;;;;;;-3.04;100.00;102805.94;5224491;28;20500;-81
2021/03/07 02:29:09;;;;;;;32.83;14.57;;;;;;;-2.98;100.00;102799.69;5210743;28;20424;-82
2021/03/07 02:31:43;;;;;;;38.15;14.90;;;;;;;-2.98;100.00;102794.44;5214249;28;20307;-81
2021/03/07 02:34:28;;;;;;;26.05;13.30;;;;;;;-3.01;100.00;102789.25;5216785;28;20040;-82
2021/03/07 02:37:02;;;;;;;33.90;15.55;;;;;;;-3.16;100.00;102785.19;5221239;28;20026;-82
2021/03/07 02:39:35;;;;;;;33.40;15.18;;;;;;;-3.20;100.00;102788.78;5209115;28;20398;-82
2021/03/07 02:42:14;;;;;;;30.50;13.63;;;;;;;-3.26;100.00;102786.28;5221077;28;20029;-82
2021/03/07 02:44:49;;;;;;;35.20;14.30;;;;;;;-3.31;100.00;102781.13;5209471;28;20337;-81
2021/03/07 02:47:22;;;;;;;35.58;14.50;;;;;;;-3.32;100.00;102781.97;5210192;28;20026;-82
2021/03/07 02:49:56;;;;;;;35.53;14.35;;;;;;;-3.29;100.00;102776.69;5217660;28;20344;-82
2021/03/07 02:52:27;;;;;;;30.98;14.25;;;;;;;-3.25;100.00;102770.50;5216900;28;20445;-82
2021/03/07 02:55:00;;;;;;;33.42;14.05;;;;;;;-3.23;100.00;102767.81;5230462;28;20021;-81
2021/03/07 02:57:31;;;;;;;30.42;13.10;;;;;;;-3.23;100.00;102762.56;5217267;28;20578;-80
2021/03/07 03:00:08;;;;;;;35.30;14.90;;;;;;;-3.26;100.00;102762.66;5229896;28;20092;-81
2021/03/07 03:02:40;;;;;;;30.88;13.82;;;;;;;-3.22;100.00;102761.66;5208768;28;20056;-80
2021/03/07 03:05:12;;;;;;;32.70;15.48;;;;;;;-3.24;100.00;102753.84;5210372;28;20108;-81
2021/03/07 03:07:43;;;;;;;35.03;15.35;;;;;;;-3.22;100.00;102751.16;5230103;28;20481;-80
2021/03/07 03:10:19;;;;;;;33.55;14.68;;;;;;;-3.22;100.00;102751.16;5212584;28;20539;-80
2021/03/07 03:12:50;;;;;;;30.08;14.55;;;;;;;-3.22;100.00;102749.41;5219401;28;20060;-80
2021/03/07 03:15:22;;;;;;;28.77;13.25;;;;;;;-3.22;100.00;102746.78;5222688;28;20027;-81
2021/03/07 03:17:54;;;;;;;31.42;14.13;;;;;;;-3.16;100.00;102753.69;5221272;28;20025;-81
2021/03/07 03:20:26;;;;;;;34.88;15.15;;;;;;;-3.16;100.00;102746.69;5221676;28;20049;-80
2021/03/07 03:22:57;;;;;;;32.17;14.45;;;;;;;-3.15;100.00;102747.53;5222181;28;20025;-80
2021/03/07 03:25:28;;;;;;;34.88;15.52;;;;;;;-3.21;100.00;102742.41;5217695;28;20029;-80
2021/03/07 03:27:59;;;;;;;31.63;14.15;;;;;;;-3.32;100.00;102744.38;5213268;28;20025;-81
2021/03/07 03:30:29;;;;;;;28.95;14.35;;;;;;;-3.45;100.00;102747.25;5208843;28;20013;-81
2021/03/07 03:33:00;;;;;;;33.25;14.75;;;;;;;-3.55;100.00;102745.72;5230002;28;20029;-80
2021/03/07 03:35:31;;;;;;;39.33;15.13;;;;;;;-3.58;100.00;102743.13;5220343;28;20031;-81
2021/03/07 03:38:02;;;;;;;32.88;14.48;;;;;;;-3.56;100.00;102748.38;5211106;28;20069;-80
2021/03/07 03:40:33;;;;;;;35.45;15.00;;;;;;;-3.60;100.00;102737.06;5220992;28;20036;-81
2021/03/07 03:43:07;;;;;;;30.85;14.02;;;;;;;-3.60;100.00;102733.56;5227211;28;20384;-80
2021/03/07 03:45:41;;;;;;;32.05;13.40;;;;;;;-3.56;100.00;102743.97;5228080;28;20021;-81
2021/03/07 03:48:18;;;;;;;30.08;13.90;;;;;;;-3.51;100.00;102736.88;5217431;28;20087;-81
2021/03/07 03:50:49;;;;;;;33.13;15.07;;;;;;;-3.52;100.00;102736.91;5231440;28;20569;-80
2021/03/07 03:53:21;;;;;;;34.72;15.55;;;;;;;-3.40;100.00;102739.28;5217903;28;20361;-80
2021/03/07 03:55:53;;;;;;;37.33;15.43;;;;;;;-3.28;100.00;102732.94;5209305;28;20539;-81
2021/03/07 03:58:26;;;;;;;38.38;15.45;;;;;;;-3.27;100.00;102732.88;5224132;28;20080;-81
2021/03/07 04:00:58;;;;;;;34.47;14.80;;;;;;;-3.26;100.00;102734.63;5215172;28;20040;-80
2021/03/07 04:03:30;;;;;;;37.50;17.13;;;;;;;-3.25;100.00;102732.88;5228923;28;20086;-80
2021/03/07 04:06:01;;;;;;;36.15;16.08;;;;;;;-3.21;100.00;102734.53;5220205;28;20028;-80
2021/03/07 04:08:33;;;;;;;35.08;15.48;;;;;;;-3.13;100.00;102741.34;5205385;28;20029;-80
2021/03/07 04:11:04;;;;;;;34.75;16.23;;;;;;;-3.13;100.00;102737.84;5203465;28;20120;-83
2021/03/07 04:13:35;;;;;;;32.83;15.20;;;;;;;-3.12;100.00;102731.69;5202165;28;20162;-83
2021/03/07 04:16:07;;;;;;;35.00;16.17;;;;;;;-3.14;100.00;102729.13;5208096;28;20032;-82
2021/03/07 04:18:40;;;;;;;37.00;16.08;;;;;;;-3.09;100.00;102730.78;5208341;28;20095;-83
2021/03/07 04:21:12;;;;;;;32.95;15.88;;;;;;;-3.05;100.00;102727.22;5224134;28;20021;-82
2021/03/07 04:23:43;;;;;;;32.05;15.00;;;;;;;-3.02;100.00;102724.50;5226574;28;20033;-82
2021/03/07 04:26:14;;;;;;;33.50;15.68;;;;;;;-3.03;100.00;102728.03;5215988;28;20032;-82
2021/03/07 04:28:45;;;;;;;34.90;16.40;;;;;;;-3.07;100.00;102727.22;5214054;28;20086;-80
2021/03/07 04:31:17;;;;;;;41.40;16.67;;;;;;;-3.13;100.00;102727.34;5226965;28;20104;-81
2021/03/07 04:33:49;;;;;;;36.70;16.13;;;;;;;-3.21;100.00;102729.28;5218251;28;20040;-80
2021/03/07 04:36:20;;;;;;;38.15;17.25;;;;;;;-3.29;100.00;102731.19;5212868;28;20060;-80
2021/03/07 04:38:51;;;;;;;43.88;16.23;;;;;;;-3.36;100.00;102724.34;5226478;28;20121;-81
2021/03/07 04:41:21;;;;;;;37.13;16.17;;;;;;;-3.43;100.00;102726.22;5226281;28;20511;-80
2021/03/07 04:43:56;;;;;;;36.35;15.77;;;;;;;-3.51;100.00;102733.41;5224978;28;20150;-80
2021/03/07 04:46:27;;;;;;;47.75;17.45;;;;;;;-3.56;100.00;102732.63;5208114;28;20460;-80
2021/03/07 04:48:57;;;;;;;36.50;15.77;;;;;;;-3.61;100.00;102727.47;5219565;28;20037;-81
2021/03/07 04:51:28;;;;;;;44.30;16.90;;;;;;;-3.55;100.00;102723.84;5217826;28;20117;-81
2021/03/07 04:53:58;;;;;;;37.22;14.70;;;;;;;-3.48;100.00;102715.81;5219985;28;20166;-81
2021/03/07 04:56:30;;;;;;;39.30;17.02;;;;;;;-3.45;100.00;102717.53;5215203;28;20025;-81
2021/03/07 04:59:00;;;;;;;37.38;16.70;;;;;;;-3.47;100.00;102716.69;5205597;28;20107;-80
2021/03/07 05:01:31;;;;;;;36.00;16.73;;;;;;;-3.48;100.00;102710.56;5231424;28;20114;-81
2021/03/07 05:04:02;;;;;;;40.88;18.67;;;;;;;-3.45;100.00;102720.16;5219297;28;20021;-80
2021/03/07 05:06:38;;;;;;;50.63;17.88;;;;;;;-3.44;100.00;102719.25;5216035;28;20029;-80
2021/03/07 05:09:10;;;;;;;45.33;19.20;;;;;;;-3.49;100.00;102724.59;5217381;28;20507;-80
2021/03/07 05:11:40;;;;;;;45.53;19.20;;;;;;;-3.54;100.00;102715.09;5217144;28;20024;-80
2021/03/07 05:14:11;;;;;;;42.92;19.58;;;;;;;-3.62;100.00;102709.97;5225432;28;20486;-80
2021/03/07 05:16:41;;;;;;;49.50;19.95;;;;;;;-3.68;100.00;102716.19;5212745;28;20034;-80
2021/03/07 05:19:12;;;;;;;45.78;21.05;;;;;;;-3.73;100.00;102711.94;5204299;28;20052;-81
2021/03/07 05:21:42;;;;;;;45.72;19.52;;;;;;;-3.79;100.00;102717.31;5204600;28;20057;-81
2021/03/07 05:24:13;;;;;;;42.03;18.50;;;;;;;-3.85;100.00;102709.56;5205079;28;20029;-80
2021/03/07 05:26:45;;;;;;;42.05;17.83;;;;;;;-3.92;100.00;102704.44;5224659;28;20032;-80
2021/03/07 05:29:15;;;;;;;52.65;20.48;;;;;;;-3.94;100.00;102707.97;5215817;28;20029;-81
2021/03/07 05:31:46;;;;;;;48.40;20.88;;;;;;;-4.00;100.00;102689.72;5224549;28;20396;-80
2021/03/07 05:34:16;;;;;;;48.15;21.80;;;;;;;-3.99;100.00;102705.44;5206436;28;20033;-80
2021/03/07 05:36:47;;;;;;;56.88;23.60;;;;;;;-3.98;100.00;102701.03;5215072;28;20048;-80
2021/03/07 05:39:17;;;;;;;54.55;23.52;;;;;;;-4.00;100.00;102701.09;5212283;28;20033;-81
2021/03/07 05:41:48;;;;;;;51.95;22.58;;;;;;;-4.01;100.00;102699.34;5217217;28;20108;-80
2021/03/07 05:44:18;;;;;;;55.55;24.35;;;;;;;-4.02;100.00;102699.38;5208959;28;20049;-80
2021/03/07 05:46:49;;;;;;;51.25;21.92;;;;;;;-4.07;100.00;102699.44;5216220;28;20021;-81
2021/03/07 05:49:19;;;;;;;53.22;22.48;;;;;;;-4.09;100.00;102701.25;5218526;28;20033;-80
2021/03/07 05:51:50;;;;;;;54.38;21.48;;;;;;;-4.11;100.00;102697.78;5206164;28;20481;-79
2021/03/07 05:54:21;;;;;;;52.63;21.45;;;;;;;-4.15;100.00;102698.72;5205192;28;20195;-79
2021/03/07 05:56:52;;;;;;;55.08;22.35;;;;;;;-4.17;100.00;102703.13;5220331;28;20044;-81
2021/03/07 05:59:23;;;;;;;45.33;19.95;;;;;;;-4.23;100.00;102703.22;5225992;28;20025;-81
2021/03/07 06:01:53;;;;;;;47.30;19.23;;;;;;;-4.29;100.00;102700.72;5225441;28;20028;-81
2021/03/07 06:04:24;;;;;;;47.45;20.67;;;;;;;-4.34;100.00;102703.41;5204730;28;20408;-80
2021/03/07 06:06:54;;;;;;;49.95;20.52;;;;;;;-4.36;100.00;102706.97;5222605;28;20025;-81
2021/03/07 06:09:27;;;;;;;48.00;22.23;;;;;;;-4.36;100.00;102704.34;5220060;28;20051;-80
2021/03/07 06:12:01;;;;;;;49.83;20.95;;;;;;;-4.35;100.00;102703.44;5229785;28;20151;-80
2021/03/07 06:14:34;;;;;;;52.50;22.45;;;;;;;-4.35;100.00;102700.84;5230262;28;20025;-80
2021/03/07 06:17:14;;;;;;;42.63;20.77;;;;;;;-4.35;100.00;102699.06;5211356;28;20126;-81
2021/03/07 06:20:00;;;;;;;46.03;19.92;;;;;;;-4.37;100.00;102694.72;5211470;28;20021;-81
2021/03/07 06:22:32;;;;;;;47.42;19.60;;;;;;;-4.34;100.00;102702.56;5229287;28;20033;-81
2021/03/07 06:25:06;;;;;;;45.17;21.17;;;;;;;-4.34;100.00;102692.06;5225324;28;20032;-80
2021/03/07 06:27:36;;;;;;;47.90;20.55;;;;;;;-4.31;100.00;102699.91;5209554;28;20606;-80
2021/03/07 06:30:09;;;;;;;40.35;18.48;;;;;;;-4.30;100.00;102701.63;5224693;28;20025;-81
2021/03/07 06:32:41;;;;;;;41.20;17.98;;;;;;;-4.31;100.00;102698.13;5216005;28;20059;-79
2021/03/07 06:35:12;;;;;;;39.63;18.33;;;;;;;-4.30;100.00;102702.47;5210386;28;20026;-80
2021/03/07 06:37:52;;;;;;;52.47;23.20;;;;;;;-4.27;100.00;102694.53;5224725;28;20489;-80
2021/03/07 06:40:26;;;;;;;42.67;19.40;;;;;;;-4.21;100.00;102696.22;5217654;28;20021;-80
2021/03/07 06:42:59;;;;;;;41.35;19.52;;;;;;;-4.16;100.00;102697.00;5228453;28;20053;-80
2021/03/07 06:45:39;;;;;;;41.53;17.85;;;;;;;-4.17;100.00;102709.25;5215077;28;20566;-80
2021/03/07 06:48:10;;;;;;;38.70;16.65;;;;;;;-4.12;100.00;102700.41;5203477;28;20039;-80
2021/03/07 06:50:55;;;;;;;48.70;19.52;;;;;;;-4.08;100.00;102704.72;5226969;28;20547;-80
2021/03/07 06:53:36;;;;;;;49.05;20.27;;;;;;;-4.00;100.00;102703.69;5216933;28;20660;-78
2021/03/07 06:56:06;;;;;;;46.38;20.55;;;;;;;-3.93;100.00;102699.19;5220149;28;20437;-82
2021/03/07 06:58:37;;;;;;;46.25;20.58;;;;;;;-3.86;100.00;102697.34;5207887;28;20037;-80
2021/03/07 07:01:20;;;;;;;42.03;18.73;;;;;;;-3.78;100.00;102705.91;5227964;28;20070;-80
2021/03/07 07:03:57;;;;;;;42.60;19.77;;;;;;;-3.71;100.00;102703.16;5224779;28;20108;-80
2021/03/07 07:06:28;;;;;;;41.92;19.30;;;;;;;-3.61;100.00;102706.47;5206654;28;20091;-80
2021/03/07 07:09:00;;;;;;;36.92;17.17;;;;;;;-3.53;100.00;102701.94;5207042;28;20029;-81
2021/03/07 07:11:41;;;;;;;43.40;17.58;;;;;;;-3.45;100.00;102704.41;5206775;28;20472;-80
2021/03/07 07:14:12;;;;;;;46.40;20.42;;;;;;;-3.38;100.00;102695.50;5201850;28;20029;-78
2021/03/07 07:16:43;;;;;;;49.85;19.83;;;;;;;-3.29;100.00;102697.06;5213226;28;20025;-81
2021/03/07 07:19:13;;;;;;;47.08;19.95;;;;;;;-3.19;100.00;102698.63;5226907;28;20025;-79
2021/03/07 07:21:43;;;;;;;45.95;20.45;;;;;;;-3.11;100.00;102696.69;5224713;28;20119;-80
2021/03/07 07:24:16;;;;;;;40.05;20.27;;;;;;;-3.02;100.00;102704.34;5215523;28;20036;-81
2021/03/07 07:26:46;;;;;;;42.50;19.65;;;;;;;-2.91;100.00;102707.63;5223303;28;20021;-80
2021/03/07 07:29:17;;;;;;;46.28;20.05;;;;;;;-2.82;100.00;102706.53;5205891;28;20029;-80
2021/03/07 07:32:04;;;;;;;46.17;20.05;;;;;;;-2.74;100.00;102711.63;5210403;28;20400;-81
2021/03/07 07:34:50;;;;;;;51.80;21.70;;;;;;;-2.63;100.00;102715.72;5222176;28;20060;-81
2021/03/07 07:37:28;;;;;;;49.30;22.98;;;;;;;-2.52;100.00;102712.84;5212583;28;20021;-81
2021/03/07 07:39:59;;;;;;;44.38;21.95;;;;;;;-2.42;100.00;102706.44;5200122;28;20028;-82
2021/03/07 07:42:34;;;;;;;54.38;22.95;;;;;;;-2.30;100.00;102710.56;5224393;28;20055;-81
2021/03/07 07:45:11;;;;;;;47.07;22.13;;;;;;;-2.17;100.00;102706.69;5213789;28;20506;-81
2021/03/07 07:47:44;;;;;;;46.95;22.40;;;;;;;-2.00;100.00;102710.69;5221473;28;20412;-80
2021/03/07 07:50:34;;;;;;;48.95;23.33;;;;;;;-1.89;100.00;102706.84;5218754;28;20029;-79
2021/03/07 07:53:26;;;;;;;49.30;21.88;;;;;;;-1.74;100.00;102715.25;5203572;28;20032;-80
2021/03/07 07:55:57;;;;;;;46.42;21.90;;;;;;;-1.60;100.00;102702.59;5222841;28;20048;-80
2021/03/07 07:58:36;;;;;;;47.10;22.70;;;;;;;-1.48;100.00;102701.34;5208378;28;20021;-80
2021/03/07 08:01:14;;;;;;;52.13;23.40;;;;;;;-1.39;100.00;102711.63;5195415;28;20429;-80
2021/03/07 08:03:47;;;;;;;48.03;21.30;;;;;;;-1.29;100.00;102706.97;5221304;28;20143;-80
2021/03/07 08:06:23;;;;;;;44.42;22.75;;;;;;;-1.21;100.00;102705.81;5221744;28;20036;-77
2021/03/07 08:08:54;;;;;;;45.55;21.67;;;;;;;-1.10;100.00;102703.75;5212997;28;20032;-81
2021/03/07 08:11:24;;;;;;;46.17;21.27;;;;;;;-0.97;100.00;102700.72;5242891;28;20033;-81
2021/03/07 08:13:56;;;;;;;40.13;20.73;;;;;;;-0.84;100.00;102697.69;5208137;28;20422;-81
2021/03/07 08:16:38;;;;;;;41.10;21.70;;;;;;;-0.72;100.00;102692.94;5205186;28;20044;-79
2021/03/07 08:19:19;;;;;;;42.05;20.48;;;;;;;-0.64;100.00;102691.78;5227336;28;20507;-81
2021/03/07 08:21:57;;;;;;;42.42;20.77;;;;;;;-0.56;100.00;102695.00;5213137;28;20067;-80
2021/03/07 08:24:56;;;;;;;43.60;19.73;;;;;;;-0.48;100.00;102694.78;5225286;28;20033;-81
2021/03/07 08:27:38;;;;;;;38.65;20.70;;;;;;;-0.34;100.00;102696.97;5216229;28;20039;-81
2021/03/07 08:30:10;;;;;;;49.72;21.13;;;;;;;-0.21;100.00;102689.50;5233458;28;20108;-80
2021/03/07 08:32:42;;;;;;;46.72;20.80;;;;;;;-0.16;100.00;102687.56;5211306;28;20051;-81
2021/03/07 08:35:15;;;;;;;38.72;19.23;;;;;;;-0.02;100.00;102687.94;5205259;28;20021;-81
2021/03/07 08:38:15;;;;;;;40.97;20.05;;;;;;;0.17;100.00;102688.19;5219045;28;20429;-81
2021/03/07 08:40:56;;;;;;;40.95;19.35;;;;;;;0.33;100.00;102681.44;5204971;28;20037;-81
2021/03/07 08:43:28;;;;;;;34.42;17.77;;;;;;;0.42;100.00;102678.44;5241613;28;20431;-81
2021/03/07 08:46:10;;;;;;;41.13;20.17;;;;;;;0.54;100.00;102677.13;5208899;28;20025;-81
2021/03/07 08:48:43;;;;;;;40.70;19.10;;;;;;;0.73;100.00;102674.66;5217564;28;20067;-81
2021/03/07 08:51:17;;;;;;;44.15;18.35;;;;;;;0.89;100.00;102677.56;5212061;28;20044;-81
2021/03/07 08:53:47;;;;;;;40.90;18.27;;;;;;;1.07;100.00;102684.81;5223998;28;20047;-81
2021/03/07 08:56:24;;;;;;;33.47;17.20;;;;;;;1.12;100.00;102680.19;5213258;28;20472;-81
2021/03/07 08:58:56;;;;;;;34.10;16.60;;;;;;;1.33;100.00;102674.97;5221559;28;20068;-81
2021/03/07 09:01:27;;;;;;;37.53;17.92;;;;;;;1.48;100.00;102672.56;5205702;28;20037;-81
2021/03/07 09:03:59;;;;;;;32.60;15.80;;;;;;;1.53;100.00;102673.22;5205271;28;20125;-81
2021/03/07 09:06:32;;;;;;;27.08;15.43;;;;;;;1.77;100.00;102673.13;5233290;28;20492;-81
2021/03/07 09:09:07;;;;;;;35.03;15.68;;;;;;;1.83;100.00;102666.72;5212995;28;20029;-81
2021/03/07 09:11:46;;;;;;;34.83;16.63;;;;;;;1.89;100.00;102669.09;5224969;28;20024;-81
2021/03/07 09:14:18;;;;;;;29.65;15.30;;;;;;;1.99;100.00;102665.97;5199092;28;20287;-81
2021/03/07 09:16:48;;;;;;;30.60;14.90;;;;;;;2.16;100.00;102653.78;5209158;28;20025;-81
2021/03/07 09:19:22;;;;;;;31.33;14.93;;;;;;;2.29;100.00;102658.47;5214785;28;20051;-81
2021/03/07 09:22:10;;;;;;;29.75;14.55;;;;;;;2.42;100.00;102660.59;5218069;28;20104;-81
2021/03/07 09:25:07;;;;;;;28.15;14.20;;;;;;;2.46;100.00;102652.44;5205929;28;20120;-81
2021/03/07 09:27:40;;;;;;;28.33;13.07;;;;;;;2.55;100.00;102662.59;5214191;28;20029;-81
2021/03/07 09:30:14;;;;;;;27.75;14.00;;;;;;;2.71;100.00;102661.88;5219303;28;20037;-81
2021/03/07 09:32:47;;;;;;;25.83;12.45;;;;;;;2.83;100.00;102650.72;5213090;28;20030;-81
2021/03/07 09:35:31;;;;;;;30.02;11.70;;;;;;;2.96;100.00;102648.34;5226344;28;20056;-81
2021/03/07 09:38:11;;;;;;;25.33;11.75;;;;;;;3.03;100.00;102650.63;5226463;28;20029;-82
2021/03/07 09:40:43;;;;;;;23.17;11.00;;;;;;;3.06;100.00;102646.97;5214225;28;20026;-81
2021/03/07 09:43:15;;;;;;;28.88;11.32;;;;;;;3.18;100.00;102657.00;5228673;28;20621;-81
2021/03/07 09:45:49;;;;;;;26.10;11.32;;;;;;;3.28;100.00;102647.66;5229597;28;20036;-82
2021/03/07 09:48:22;;;;;;;21.08;11.63;;;;;;;3.42;100.00;102640.81;5220441;28;20025;-81
2021/03/07 09:50:53;;;;;;;27.52;10.57;;;;;;;3.47;100.00;102638.81;5226898;28;20048;-81
2021/03/07 09:53:24;;;;;;;20.55;10.38;;;;;;;3.55;100.00;102641.91;5217198;28;20029;-81
2021/03/07 09:55:55;;;;;;;21.65;10.60;;;;;;;3.63;100.00;102637.09;5208373;28;20029;-81
2021/03/07 09:58:35;;;;;;;20.83;9.88;;;;;;;3.68;100.00;102627.09;5222240;28;20083;-81
2021/03/07 10:01:06;;;;;;;17.08;8.82;;;;;;;3.84;100.00;102633.31;5231438;28;20044;-82
2021/03/07 10:03:36;;;;;;;21.08;10.73;;;;;;;3.98;100.00;102635.28;5214809;28;20025;-81
2021/03/07 10:06:09;;;;;;;19.05;9.45;;;;;;;4.06;100.00;102629.53;5219735;28;20028;-81
2021/03/07 10:08:40;;;;;;;21.85;9.57;;;;;;;4.09;100.00;102637.38;5218095;28;20059;-81
2021/03/07 10:11:18;;;;;;;16.23;9.07;;;;;;;4.30;100.00;102640.69;5218622;28;20029;-82
2021/03/07 10:14:00;;;;;;;16.17;7.65;;;;;;;4.58;100.00;102637.41;5223299;28;20033;-82
2021/03/07 10:16:33;;;;;;;12.25;7.22;;;;;;;4.62;100.00;102631.84;5215071;28;20079;-82
2021/03/07 10:19:13;;;;;;;13.27;7.20;;;;;;;4.61;100.00;102616.81;5221552;28;20033;-81
2021/03/07 10:21:45;;;;;;;16.23;7.25;;;;;;;4.67;100.00;102620.94;5225802;28;20024;-82
2021/03/07 10:24:18;;;;;;;13.43;6.60;;;;;;;4.63;100.00;102625.56;5218310;28;20024;-82
2021/03/07 10:26:50;;;;;;;12.23;5.53;;;;;;;4.44;100.00;102618.69;5208167;28;20316;-82
2021/03/07 10:29:27;;;;;;;14.30;6.95;;;;;;;4.40;100.00;102621.50;5222232;28;20047;-82
2021/03/07 10:32:06;;;;;;;9.38;6.03;;;;;;;4.55;100.00;102626.94;5220837;28;20025;-82
2021/03/07 10:34:42;;;;;;;15.40;6.60;;;;;;;4.67;100.00;102615.63;5223097;28;20045;-82
2021/03/07 10:37:34;;;;;;;9.15;5.50;;;;;;;4.96;100.00;102615.78;5209509;28;20440;-81
2021/03/07 10:40:08;;;;;;;12.00;5.32;;;;;;;5.13;100.00;102621.03;5220976;28;20025;-82
2021/03/07 10:42:41;;;;;;;10.10;5.70;;;;;;;5.34;100.00;102630.41;5212777;28;20029;-82
2021/03/07 10:45:23;;;;;;;13.10;5.95;;;;;;;5.45;100.00;102628.00;5209227;28;20030;-83
2021/03/07 10:48:03;;;;;;;15.45;6.05;;;;;;;5.66;100.00;102625.84;5245432;28;20136;-82
2021/03/07 10:50:36;;;;;;;8.65;5.53;;;;;;;5.88;100.00;102620.13;5229448;28;20079;-81
2021/03/07 10:53:06;;;;;;;7.65;4.53;;;;;;;6.16;100.00;102614.00;5207615;28;20024;-82
2021/03/07 10:55:37;;;;;;;9.70;5.00;;;;;;;6.22;100.00;102608.31;5209429;28;20033;-82
2021/03/07 10:58:07;;;;;;;8.90;4.90;;;;;;;6.26;100.00;102613.41;5206997;28;20404;-82
2021/03/07 11:00:38;;;;;;;14.45;5.82;;;;;;;6.03;100.00;102606.88;5206461;28;20025;-82
2021/03/07 11:03:09;;;;;;;10.38;5.75;;;;;;;5.66;100.00;102615.22;5206704;28;20033;-81
2021/03/07 11:05:39;;;;;;;9.60;4.55;;;;;;;5.41;100.00;102610.47;5206586;28;20198;-81
2021/03/07 11:08:10;;;;;;;11.02;5.65;;;;;;;5.20;100.00;102625.03;5206120;28;20063;-81
2021/03/07 11:10:40;;;;;;;9.85;4.72;;;;;;;4.98;100.00;102620.09;5208939;28;20021;-81
2021/03/07 11:13:11;;;;;;;8.80;4.50;;;;;;;4.84;100.00;102615.53;5226717;28;20079;-81
2021/03/07 11:15:41;;;;;;;8.32;4.00;;;;;;;4.73;100.00;102619.75;5234833;28;20052;-82
2021/03/07 11:18:12;;;;;;;8.00;4.88;;;;;;;4.63;100.00;102608.75;5221124;28;20027;-81
2021/03/07 11:20:42;;;;;;;9.95;5.25;;;;;;;4.61;100.00;102610.63;5244854;28;20036;-82
2021/03/07 11:23:13;;;;;;;7.80;4.70;;;;;;;4.71;100.00;102611.84;5241251;28;20439;-82
2021/03/07 11:25:44;;;;;;;19.15;6.47;;;;;;;5.06;100.00;102609.00;5217268;28;20481;-82
2021/03/07 11:28:15;;;;;;;11.68;4.80;;;;;;;5.52;100.00;102603.66;5227603;28;20016;-83
2021/03/07 11:30:45;;;;;;;8.77;5.22;;;;;;;5.96;100.00;102585.91;5216995;28;20028;-83
2021/03/07 11:33:18;;;;;;;12.02;5.07;;;;;;;6.43;100.00;102587.44;5211697;28;20107;-83